Aviation Digital Data Service (ADDS)

Output produced by METARs form (0031 UTC 21 October 2014)
found at http://aviationweather.gov/adds/metars/
 
KIAH 202323Z 2100/2206 07006KT P6SM SCT250